sensor_id;sensor_type;location;lat;lon;timestamp;P1;durP1;ratioP1;P2;durP2;ratioP2
73951;SDS011;62304;47.662;18.324;2023-08-21T00:02:07;20.93;;;15.73;;
73951;SDS011;62304;47.662;18.324;2023-08-21T00:05:10;19.55;;;15.40;;
73951;SDS011;62304;47.662;18.324;2023-08-21T00:08:13;19.70;;;15.68;;
73951;SDS011;62304;47.662;18.324;2023-08-21T00:11:16;19.98;;;15.25;;
73951;SDS011;62304;47.662;18.324;2023-08-21T00:14:19;20.48;;;15.73;;
73951;SDS011;62304;47.662;18.324;2023-08-21T00:17:22;21.93;;;16.23;;
73951;SDS011;62304;47.662;18.324;2023-08-21T00:20:25;20.25;;;15.48;;
73951;SDS011;62304;47.662;18.324;2023-08-21T00:23:28;20.45;;;15.63;;
73951;SDS011;62304;47.662;18.324;2023-08-21T00:26:31;19.33;;;15.35;;
73951;SDS011;62304;47.662;18.324;2023-08-21T00:29:34;23.02;;;16.23;;
73951;SDS011;62304;47.662;18.324;2023-08-21T00:32:37;21.43;;;16.37;;
73951;SDS011;62304;47.662;18.324;2023-08-21T00:35:42;21.92;;;15.80;;
73951;SDS011;62304;47.662;18.324;2023-08-21T00:38:45;22.73;;;16.45;;
73951;SDS011;62304;47.662;18.324;2023-08-21T00:41:48;22.42;;;17.05;;
73951;SDS011;62304;47.662;18.324;2023-08-21T00:44:51;21.87;;;16.50;;
73951;SDS011;62304;47.662;18.324;2023-08-21T00:47:54;23.47;;;16.10;;
73951;SDS011;62304;47.662;18.324;2023-08-21T00:50:57;22.95;;;16.50;;
73951;SDS011;62304;47.662;18.324;2023-08-21T00:54:00;22.75;;;16.30;;
73951;SDS011;62304;47.662;18.324;2023-08-21T00:57:03;22.70;;;15.50;;
73951;SDS011;62304;47.662;18.324;2023-08-21T01:00:07;21.00;;;15.77;;
73951;SDS011;62304;47.662;18.324;2023-08-21T01:03:13;23.23;;;16.43;;
73951;SDS011;62304;47.662;18.324;2023-08-21T01:06:17;22.08;;;16.00;;
73951;SDS011;62304;47.662;18.324;2023-08-21T01:09:29;23.12;;;16.95;;
73951;SDS011;62304;47.662;18.324;2023-08-21T01:12:35;26.27;;;17.67;;
73951;SDS011;62304;47.662;18.324;2023-08-21T01:15:45;24.58;;;16.83;;
73951;SDS011;62304;47.662;18.324;2023-08-21T01:18:49;22.13;;;16.87;;
73951;SDS011;62304;47.662;18.324;2023-08-21T01:21:53;23.73;;;16.23;;
73951;SDS011;62304;47.662;18.324;2023-08-21T01:24:56;22.85;;;16.15;;
73951;SDS011;62304;47.662;18.324;2023-08-21T01:27:59;23.55;;;16.02;;
73951;SDS011;62304;47.662;18.324;2023-08-21T01:31:11;22.27;;;16.50;;
73951;SDS011;62304;47.662;18.324;2023-08-21T01:34:20;22.87;;;15.80;;
73951;SDS011;62304;47.662;18.324;2023-08-21T01:37:24;25.00;;;16.62;;
73951;SDS011;62304;47.662;18.324;2023-08-21T01:40:29;24.58;;;16.17;;
73951;SDS011;62304;47.662;18.324;2023-08-21T01:43:34;22.62;;;15.05;;
73951;SDS011;62304;47.662;18.324;2023-08-21T01:46:37;22.40;;;15.95;;
73951;SDS011;62304;47.662;18.324;2023-08-21T01:49:40;22.37;;;16.20;;
73951;SDS011;62304;47.662;18.324;2023-08-21T01:52:43;23.08;;;16.37;;
73951;SDS011;62304;47.662;18.324;2023-08-21T01:55:46;25.90;;;17.08;;
73951;SDS011;62304;47.662;18.324;2023-08-21T01:58:50;20.52;;;15.15;;
73951;SDS011;62304;47.662;18.324;2023-08-21T02:01:53;22.67;;;15.43;;
73951;SDS011;62304;47.662;18.324;2023-08-21T02:04:58;21.43;;;15.63;;
73951;SDS011;62304;47.662;18.324;2023-08-21T02:08:01;20.77;;;15.65;;
73951;SDS011;62304;47.662;18.324;2023-08-21T02:11:04;23.05;;;15.95;;
73951;SDS011;62304;47.662;18.324;2023-08-21T02:14:06;23.60;;;15.23;;
73951;SDS011;62304;47.662;18.324;2023-08-21T02:17:10;20.23;;;15.73;;
73951;SDS011;62304;47.662;18.324;2023-08-21T02:20:13;21.33;;;15.63;;
73951;SDS011;62304;47.662;18.324;2023-08-21T02:23:16;21.85;;;14.95;;
73951;SDS011;62304;47.662;18.324;2023-08-21T02:26:19;19.52;;;15.07;;
73951;SDS011;62304;47.662;18.324;2023-08-21T02:29:22;21.60;;;14.98;;
73951;SDS011;62304;47.662;18.324;2023-08-21T02:32:25;23.30;;;15.60;;
73951;SDS011;62304;47.662;18.324;2023-08-21T02:35:28;20.70;;;15.30;;
73951;SDS011;62304;47.662;18.324;2023-08-21T02:38:31;21.92;;;15.65;;
73951;SDS011;62304;47.662;18.324;2023-08-21T02:41:34;21.73;;;15.15;;
73951;SDS011;62304;47.662;18.324;2023-08-21T02:44:37;19.58;;;14.77;;
73951;SDS011;62304;47.662;18.324;2023-08-21T02:47:40;23.05;;;16.15;;
73951;SDS011;62304;47.662;18.324;2023-08-21T02:50:44;23.93;;;15.80;;
73951;SDS011;62304;47.662;18.324;2023-08-21T02:53:47;23.90;;;16.60;;
73951;SDS011;62304;47.662;18.324;2023-08-21T02:56:50;20.52;;;15.60;;
73951;SDS011;62304;47.662;18.324;2023-08-21T02:59:53;21.52;;;15.52;;
73951;SDS011;62304;47.662;18.324;2023-08-21T03:02:56;23.02;;;16.35;;
73951;SDS011;62304;47.662;18.324;2023-08-21T03:06:00;21.13;;;15.83;;
73951;SDS011;62304;47.662;18.324;2023-08-21T03:09:03;22.25;;;16.67;;
73951;SDS011;62304;47.662;18.324;2023-08-21T03:12:06;23.00;;;16.35;;
73951;SDS011;62304;47.662;18.324;2023-08-21T03:15:10;22.67;;;16.30;;
73951;SDS011;62304;47.662;18.324;2023-08-21T03:18:13;24.33;;;16.83;;
73951;SDS011;62304;47.662;18.324;2023-08-21T03:21:17;21.67;;;15.97;;
73951;SDS011;62304;47.662;18.324;2023-08-21T03:24:19;23.87;;;16.62;;
73951;SDS011;62304;47.662;18.324;2023-08-21T03:27:23;27.80;;;17.33;;
73951;SDS011;62304;47.662;18.324;2023-08-21T03:30:27;24.70;;;17.25;;
73951;SDS011;62304;47.662;18.324;2023-08-21T03:33:30;23.55;;;16.20;;
73951;SDS011;62304;47.662;18.324;2023-08-21T03:36:33;21.53;;;15.53;;
73951;SDS011;62304;47.662;18.324;2023-08-21T03:39:37;21.85;;;15.48;;
73951;SDS011;62304;47.662;18.324;2023-08-21T03:42:42;20.50;;;15.93;;
73951;SDS011;62304;47.662;18.324;2023-08-21T03:45:46;20.65;;;16.17;;
73951;SDS011;62304;47.662;18.324;2023-08-21T03:48:49;21.90;;;16.20;;
73951;SDS011;62304;47.662;18.324;2023-08-21T03:51:54;24.30;;;16.33;;
73951;SDS011;62304;47.662;18.324;2023-08-21T03:54:56;23.33;;;15.80;;
73951;SDS011;62304;47.662;18.324;2023-08-21T03:58:00;22.25;;;15.05;;
73951;SDS011;62304;47.662;18.324;2023-08-21T04:01:03;26.00;;;16.17;;
73951;SDS011;62304;47.662;18.324;2023-08-21T04:04:06;25.20;;;16.73;;
73951;SDS011;62304;47.662;18.324;2023-08-21T04:07:11;22.53;;;16.00;;
73951;SDS011;62304;47.662;18.324;2023-08-21T04:10:16;23.15;;;15.85;;
73951;SDS011;62304;47.662;18.324;2023-08-21T04:13:19;26.15;;;17.17;;
73951;SDS011;62304;47.662;18.324;2023-08-21T04:16:22;21.35;;;15.82;;
73951;SDS011;62304;47.662;18.324;2023-08-21T04:19:26;25.30;;;16.27;;
73951;SDS011;62304;47.662;18.324;2023-08-21T04:22:32;25.20;;;15.77;;
73951;SDS011;62304;47.662;18.324;2023-08-21T04:25:35;22.30;;;16.17;;
73951;SDS011;62304;47.662;18.324;2023-08-21T04:28:38;24.83;;;16.25;;
73951;SDS011;62304;47.662;18.324;2023-08-21T04:31:41;23.62;;;17.27;;
73951;SDS011;62304;47.662;18.324;2023-08-21T04:34:45;24.55;;;17.00;;
73951;SDS011;62304;47.662;18.324;2023-08-21T04:37:48;24.20;;;16.57;;
73951;SDS011;62304;47.662;18.324;2023-08-21T04:40:51;22.55;;;16.30;;
73951;SDS011;62304;47.662;18.324;2023-08-21T04:43:54;29.10;;;19.10;;
73951;SDS011;62304;47.662;18.324;2023-08-21T04:47:18;28.87;;;17.37;;
73951;SDS011;62304;47.662;18.324;2023-08-21T04:50:23;27.62;;;18.10;;
73951;SDS011;62304;47.662;18.324;2023-08-21T04:53:26;25.13;;;17.53;;
73951;SDS011;62304;47.662;18.324;2023-08-21T04:56:29;26.90;;;17.42;;
73951;SDS011;62304;47.662;18.324;2023-08-21T04:59:32;25.88;;;17.75;;
73951;SDS011;62304;47.662;18.324;2023-08-21T05:02:36;24.35;;;17.87;;
73951;SDS011;62304;47.662;18.324;2023-08-21T05:05:40;25.80;;;18.02;;
73951;SDS011;62304;47.662;18.324;2023-08-21T05:08:43;26.57;;;17.77;;
73951;SDS011;62304;47.662;18.324;2023-08-21T05:11:47;26.05;;;17.17;;
73951;SDS011;62304;47.662;18.324;2023-08-21T05:14:49;25.25;;;16.77;;
73951;SDS011;62304;47.662;18.324;2023-08-21T05:17:54;25.48;;;17.48;;
73951;SDS011;62304;47.662;18.324;2023-08-21T05:20:57;21.70;;;16.52;;
73951;SDS011;62304;47.662;18.324;2023-08-21T05:24:01;24.67;;;16.53;;
73951;SDS011;62304;47.662;18.324;2023-08-21T05:27:05;25.65;;;17.35;;
73951;SDS011;62304;47.662;18.324;2023-08-21T05:30:09;24.37;;;17.12;;
73951;SDS011;62304;47.662;18.324;2023-08-21T05:33:16;22.75;;;16.45;;
73951;SDS011;62304;47.662;18.324;2023-08-21T05:36:20;22.92;;;16.50;;
73951;SDS011;62304;47.662;18.324;2023-08-21T05:39:23;23.37;;;17.50;;
73951;SDS011;62304;47.662;18.324;2023-08-21T05:42:27;22.42;;;16.48;;
73951;SDS011;62304;47.662;18.324;2023-08-21T05:45:30;22.70;;;17.40;;
73951;SDS011;62304;47.662;18.324;2023-08-21T05:48:33;21.48;;;16.23;;
73951;SDS011;62304;47.662;18.324;2023-08-21T05:51:37;21.25;;;16.75;;
73951;SDS011;62304;47.662;18.324;2023-08-21T05:54:40;22.50;;;16.27;;
73951;SDS011;62304;47.662;18.324;2023-08-21T05:57:43;24.63;;;16.60;;
73951;SDS011;62304;47.662;18.324;2023-08-21T06:00:46;22.35;;;17.27;;
73951;SDS011;62304;47.662;18.324;2023-08-21T06:03:50;21.12;;;16.45;;
73951;SDS011;62304;47.662;18.324;2023-08-21T06:06:54;25.73;;;18.50;;
73951;SDS011;62304;47.662;18.324;2023-08-21T06:09:57;22.93;;;18.07;;
73951;SDS011;62304;47.662;18.324;2023-08-21T06:13:00;22.23;;;18.30;;
73951;SDS011;62304;47.662;18.324;2023-08-21T06:16:03;24.48;;;18.05;;
73951;SDS011;62304;47.662;18.324;2023-08-21T06:19:07;25.17;;;19.58;;
73951;SDS011;62304;47.662;18.324;2023-08-21T06:22:10;23.95;;;18.50;;
73951;SDS011;62304;47.662;18.324;2023-08-21T06:25:13;23.73;;;18.63;;
73951;SDS011;62304;47.662;18.324;2023-08-21T06:28:16;23.10;;;18.37;;
73951;SDS011;62304;47.662;18.324;2023-08-21T06:31:19;24.58;;;18.98;;
73951;SDS011;62304;47.662;18.324;2023-08-21T06:34:23;26.25;;;19.55;;
73951;SDS011;62304;47.662;18.324;2023-08-21T06:37:26;24.58;;;18.77;;
73951;SDS011;62304;47.662;18.324;2023-08-21T06:40:29;23.73;;;19.10;;
73951;SDS011;62304;47.662;18.324;2023-08-21T06:43:32;28.17;;;18.95;;
73951;SDS011;62304;47.662;18.324;2023-08-21T06:46:36;27.67;;;19.40;;
73951;SDS011;62304;47.662;18.324;2023-08-21T06:49:39;25.23;;;19.85;;
73951;SDS011;62304;47.662;18.324;2023-08-21T06:52:42;25.02;;;18.70;;
73951;SDS011;62304;47.662;18.324;2023-08-21T06:55:45;26.97;;;19.27;;
73951;SDS011;62304;47.662;18.324;2023-08-21T06:58:49;25.40;;;19.20;;
73951;SDS011;62304;47.662;18.324;2023-08-21T07:01:52;21.77;;;17.45;;
73951;SDS011;62304;47.662;18.324;2023-08-21T07:04:55;22.92;;;17.90;;
73951;SDS011;62304;47.662;18.324;2023-08-21T07:07:58;26.15;;;17.75;;
73951;SDS011;62304;47.662;18.324;2023-08-21T07:11:02;22.93;;;17.97;;
73951;SDS011;62304;47.662;18.324;2023-08-21T07:14:07;21.95;;;16.98;;
73951;SDS011;62304;47.662;18.324;2023-08-21T07:17:10;23.98;;;16.55;;
73951;SDS011;62304;47.662;18.324;2023-08-21T07:20:13;24.63;;;17.25;;
73951;SDS011;62304;47.662;18.324;2023-08-21T07:23:16;22.83;;;18.30;;
73951;SDS011;62304;47.662;18.324;2023-08-21T07:26:19;23.63;;;17.33;;
73951;SDS011;62304;47.662;18.324;2023-08-21T07:29:22;24.75;;;18.27;;
73951;SDS011;62304;47.662;18.324;2023-08-21T07:32:25;21.40;;;17.02;;
73951;SDS011;62304;47.662;18.324;2023-08-21T07:35:28;26.35;;;17.65;;
73951;SDS011;62304;47.662;18.324;2023-08-21T07:38:31;20.45;;;17.08;;
73951;SDS011;62304;47.662;18.324;2023-08-21T07:41:35;24.57;;;18.40;;
73951;SDS011;62304;47.662;18.324;2023-08-21T07:44:40;20.55;;;16.23;;
73951;SDS011;62304;47.662;18.324;2023-08-21T07:47:44;21.00;;;16.40;;
73951;SDS011;62304;47.662;18.324;2023-08-21T07:50:51;19.35;;;16.77;;
73951;SDS011;62304;47.662;18.324;2023-08-21T07:53:59;20.67;;;16.87;;
73951;SDS011;62304;47.662;18.324;2023-08-21T07:57:02;23.23;;;15.40;;
73951;SDS011;62304;47.662;18.324;2023-08-21T08:00:06;22.83;;;17.02;;
73951;SDS011;62304;47.662;18.324;2023-08-21T08:03:14;19.55;;;16.08;;
73951;SDS011;62304;47.662;18.324;2023-08-21T08:06:17;19.92;;;16.08;;
73951;SDS011;62304;47.662;18.324;2023-08-21T08:09:21;20.80;;;15.65;;
73951;SDS011;62304;47.662;18.324;2023-08-21T08:12:24;18.87;;;14.83;;
73951;SDS011;62304;47.662;18.324;2023-08-21T08:15:28;17.65;;;15.35;;
73951;SDS011;62304;47.662;18.324;2023-08-21T08:18:31;19.42;;;15.38;;
73951;SDS011;62304;47.662;18.324;2023-08-21T08:21:34;19.55;;;15.23;;
73951;SDS011;62304;47.662;18.324;2023-08-21T08:24:37;20.25;;;13.90;;
73951;SDS011;62304;47.662;18.324;2023-08-21T08:27:40;17.73;;;15.00;;
73951;SDS011;62304;47.662;18.324;2023-08-21T08:30:43;17.08;;;14.48;;
73951;SDS011;62304;47.662;18.324;2023-08-21T08:33:47;17.27;;;13.93;;
73951;SDS011;62304;47.662;18.324;2023-08-21T08:36:50;17.00;;;15.23;;
73951;SDS011;62304;47.662;18.324;2023-08-21T08:39:53;17.60;;;15.32;;
73951;SDS011;62304;47.662;18.324;2023-08-21T08:43:00;21.70;;;15.60;;
73951;SDS011;62304;47.662;18.324;2023-08-21T08:46:03;17.05;;;14.63;;
73951;SDS011;62304;47.662;18.324;2023-08-21T08:49:08;18.70;;;15.82;;
73951;SDS011;62304;47.662;18.324;2023-08-21T08:52:12;17.85;;;15.13;;
73951;SDS011;62304;47.662;18.324;2023-08-21T08:55:16;18.02;;;16.12;;
73951;SDS011;62304;47.662;18.324;2023-08-21T08:58:18;25.97;;;17.13;;
73951;SDS011;62304;47.662;18.324;2023-08-21T09:01:22;17.70;;;14.38;;
73951;SDS011;62304;47.662;18.324;2023-08-21T09:04:25;18.37;;;14.50;;
73951;SDS011;62304;47.662;18.324;2023-08-21T09:07:28;22.08;;;14.45;;
73951;SDS011;62304;47.662;18.324;2023-08-21T09:10:31;15.85;;;14.15;;
73951;SDS011;62304;47.662;18.324;2023-08-21T09:13:34;16.33;;;13.13;;
73951;SDS011;62304;47.662;18.324;2023-08-21T09:16:37;16.90;;;12.32;;
73951;SDS011;62304;47.662;18.324;2023-08-21T09:19:43;16.67;;;12.80;;
73951;SDS011;62304;47.662;18.324;2023-08-21T09:22:54;15.38;;;12.30;;
73951;SDS011;62304;47.662;18.324;2023-08-21T09:26:03;14.60;;;12.52;;
73951;SDS011;62304;47.662;18.324;2023-08-21T09:29:07;14.07;;;11.93;;
73951;SDS011;62304;47.662;18.324;2023-08-21T09:32:11;13.93;;;12.30;;
73951;SDS011;62304;47.662;18.324;2023-08-21T09:35:16;14.57;;;11.05;;
73951;SDS011;62304;47.662;18.324;2023-08-21T09:38:20;14.30;;;11.00;;
73951;SDS011;62304;47.662;18.324;2023-08-21T09:41:26;13.32;;;11.12;;
73951;SDS011;62304;47.662;18.324;2023-08-21T09:44:34;15.80;;;11.93;;
73951;SDS011;62304;47.662;18.324;2023-08-21T09:47:42;12.80;;;11.48;;
73951;SDS011;62304;47.662;18.324;2023-08-21T09:50:46;14.07;;;11.80;;
73951;SDS011;62304;47.662;18.324;2023-08-21T09:53:49;12.80;;;11.07;;
73951;SDS011;62304;47.662;18.324;2023-08-21T09:56:53;16.30;;;11.90;;
73951;SDS011;62304;47.662;18.324;2023-08-21T10:00:00;13.33;;;11.23;;
73951;SDS011;62304;47.662;18.324;2023-08-21T10:03:20;12.63;;;11.32;;
73951;SDS011;62304;47.662;18.324;2023-08-21T10:06:24;16.98;;;12.05;;
73951;SDS011;62304;47.662;18.324;2023-08-21T10:09:28;13.90;;;11.82;;
73951;SDS011;62304;47.662;18.324;2023-08-21T10:12:32;12.68;;;11.15;;
73951;SDS011;62304;47.662;18.324;2023-08-21T10:15:35;12.57;;;11.27;;
73951;SDS011;62304;47.662;18.324;2023-08-21T10:18:43;12.88;;;11.48;;
73951;SDS011;62304;47.662;18.324;2023-08-21T10:21:47;12.07;;;10.75;;
73951;SDS011;62304;47.662;18.324;2023-08-21T10:24:55;13.48;;;11.88;;
73951;SDS011;62304;47.662;18.324;2023-08-21T10:28:02;15.40;;;11.55;;
73951;SDS011;62304;47.662;18.324;2023-08-21T10:31:29;13.57;;;10.40;;
73951;SDS011;62304;47.662;18.324;2023-08-21T10:34:38;12.18;;;10.55;;
73951;SDS011;62304;47.662;18.324;2023-08-21T10:41:20;13.75;;;10.63;;
73951;SDS011;62304;47.662;18.324;2023-08-21T10:44:36;12.15;;;9.90;;
73951;SDS011;62304;47.662;18.324;2023-08-21T10:47:39;10.53;;;8.73;;
73951;SDS011;62304;47.662;18.324;2023-08-21T10:50:42;10.93;;;9.80;;
73951;SDS011;62304;47.662;18.324;2023-08-21T10:53:46;11.38;;;10.07;;
73951;SDS011;62304;47.662;18.324;2023-08-21T10:56:49;17.98;;;10.35;;
73951;SDS011;62304;47.662;18.324;2023-08-21T11:03:12;12.33;;;10.07;;
73951;SDS011;62304;47.662;18.324;2023-08-21T11:06:18;11.05;;;10.05;;
73951;SDS011;62304;47.662;18.324;2023-08-21T11:09:21;11.38;;;9.88;;
73951;SDS011;62304;47.662;18.324;2023-08-21T11:12:27;12.45;;;10.32;;
73951;SDS011;62304;47.662;18.324;2023-08-21T11:15:31;10.65;;;9.55;;
73951;SDS011;62304;47.662;18.324;2023-08-21T11:18:35;15.10;;;10.17;;
73951;SDS011;62304;47.662;18.324;2023-08-21T11:21:40;10.93;;;9.38;;
73951;SDS011;62304;47.662;18.324;2023-08-21T11:24:44;10.25;;;9.15;;
73951;SDS011;62304;47.662;18.324;2023-08-21T11:27:49;11.40;;;10.20;;
73951;SDS011;62304;47.662;18.324;2023-08-21T11:30:51;11.63;;;10.50;;
73951;SDS011;62304;47.662;18.324;2023-08-21T11:33:55;11.83;;;10.60;;
73951;SDS011;62304;47.662;18.324;2023-08-21T11:36:59;11.88;;;9.98;;
73951;SDS011;62304;47.662;18.324;2023-08-21T11:40:09;11.50;;;10.38;;
73951;SDS011;62304;47.662;18.324;2023-08-21T11:43:12;12.70;;;10.20;;
73951;SDS011;62304;47.662;18.324;2023-08-21T11:46:15;11.23;;;10.02;;
73951;SDS011;62304;47.662;18.324;2023-08-21T11:49:21;12.53;;;9.77;;
73951;SDS011;62304;47.662;18.324;2023-08-21T11:52:26;11.20;;;10.10;;
73951;SDS011;62304;47.662;18.324;2023-08-21T11:55:34;11.35;;;10.18;;
73951;SDS011;62304;47.662;18.324;2023-08-21T11:58:41;11.23;;;10.23;;
73951;SDS011;62304;47.662;18.324;2023-08-21T12:01:51;11.77;;;9.38;;
73951;SDS011;62304;47.662;18.324;2023-08-21T12:05:01;10.70;;;9.53;;
73951;SDS011;62304;47.662;18.324;2023-08-21T12:08:08;10.55;;;8.88;;
73951;SDS011;62304;47.662;18.324;2023-08-21T12:11:11;11.68;;;9.13;;
73951;SDS011;62304;47.662;18.324;2023-08-21T12:14:14;14.43;;;9.18;;
73951;SDS011;62304;47.662;18.324;2023-08-21T12:17:18;10.13;;;8.95;;
73951;SDS011;62304;47.662;18.324;2023-08-21T12:20:21;9.93;;;8.50;;
73951;SDS011;62304;47.662;18.324;2023-08-21T12:23:24;9.45;;;8.55;;
73951;SDS011;62304;47.662;18.324;2023-08-21T12:26:27;9.82;;;8.50;;
73951;SDS011;62304;47.662;18.324;2023-08-21T12:29:46;8.95;;;8.02;;
73951;SDS011;62304;47.662;18.324;2023-08-21T12:32:50;9.82;;;7.62;;
73951;SDS011;62304;47.662;18.324;2023-08-21T12:35:53;9.10;;;8.20;;
73951;SDS011;62304;47.662;18.324;2023-08-21T12:38:57;10.25;;;8.45;;
73951;SDS011;62304;47.662;18.324;2023-08-21T12:42:00;9.48;;;8.48;;
73951;SDS011;62304;47.662;18.324;2023-08-21T12:45:03;9.63;;;8.63;;
73951;SDS011;62304;47.662;18.324;2023-08-21T12:48:07;9.45;;;8.55;;
73951;SDS011;62304;47.662;18.324;2023-08-21T12:51:10;10.97;;;8.37;;
73951;SDS011;62304;47.662;18.324;2023-08-21T12:54:14;9.77;;;8.77;;
73951;SDS011;62304;47.662;18.324;2023-08-21T12:57:17;10.50;;;9.10;;
73951;SDS011;62304;47.662;18.324;2023-08-21T13:00:20;10.98;;;8.15;;
73951;SDS011;62304;47.662;18.324;2023-08-21T13:03:23;11.38;;;9.02;;
73951;SDS011;62304;47.662;18.324;2023-08-21T13:06:28;9.80;;;8.47;;
73951;SDS011;62304;47.662;18.324;2023-08-21T13:09:31;10.10;;;8.80;;
73951;SDS011;62304;47.662;18.324;2023-08-21T13:12:35;9.95;;;8.88;;
73951;SDS011;62304;47.662;18.324;2023-08-21T13:15:42;9.77;;;8.23;;
73951;SDS011;62304;47.662;18.324;2023-08-21T13:18:47;9.90;;;8.82;;
73951;SDS011;62304;47.662;18.324;2023-08-21T13:21:50;10.53;;;9.00;;
73951;SDS011;62304;47.662;18.324;2023-08-21T13:24:54;8.63;;;7.60;;
73951;SDS011;62304;47.662;18.324;2023-08-21T13:27:56;9.82;;;8.85;;
73951;SDS011;62304;47.662;18.324;2023-08-21T13:31:00;8.90;;;7.90;;
73951;SDS011;62304;47.662;18.324;2023-08-21T13:34:02;11.38;;;8.30;;
73951;SDS011;62304;47.662;18.324;2023-08-21T13:37:06;8.90;;;7.70;;
73951;SDS011;62304;47.662;18.324;2023-08-21T13:40:09;10.48;;;8.35;;
73951;SDS011;62304;47.662;18.324;2023-08-21T13:43:17;9.38;;;7.97;;
73951;SDS011;62304;47.662;18.324;2023-08-21T13:46:25;12.15;;;7.32;;
73951;SDS011;62304;47.662;18.324;2023-08-21T13:49:29;10.82;;;8.27;;
73951;SDS011;62304;47.662;18.324;2023-08-21T13:52:31;8.50;;;7.63;;
73951;SDS011;62304;47.662;18.324;2023-08-21T13:55:35;9.18;;;7.87;;
73951;SDS011;62304;47.662;18.324;2023-08-21T13:58:38;8.85;;;7.95;;
73951;SDS011;62304;47.662;18.324;2023-08-21T14:01:41;10.30;;;7.72;;
73951;SDS011;62304;47.662;18.324;2023-08-21T14:04:45;8.50;;;7.70;;
73951;SDS011;62304;47.662;18.324;2023-08-21T14:07:49;9.20;;;7.87;;
73951;SDS011;62304;47.662;18.324;2023-08-21T14:10:52;9.20;;;7.57;;
73951;SDS011;62304;47.662;18.324;2023-08-21T14:13:54;9.98;;;8.43;;
73951;SDS011;62304;47.662;18.324;2023-08-21T14:16:58;9.82;;;8.50;;
73951;SDS011;62304;47.662;18.324;2023-08-21T14:20:01;10.25;;;9.23;;
73951;SDS011;62304;47.662;18.324;2023-08-21T14:23:05;10.33;;;7.57;;
73951;SDS011;62304;47.662;18.324;2023-08-21T14:26:09;9.88;;;8.88;;
73951;SDS011;62304;47.662;18.324;2023-08-21T14:29:13;10.38;;;9.00;;
73951;SDS011;62304;47.662;18.324;2023-08-21T14:32:15;12.77;;;8.60;;
73951;SDS011;62304;47.662;18.324;2023-08-21T14:35:19;10.63;;;9.52;;
73951;SDS011;62304;47.662;18.324;2023-08-21T14:38:22;12.03;;;8.97;;
73951;SDS011;62304;47.662;18.324;2023-08-21T14:41:25;13.55;;;9.52;;
73951;SDS011;62304;47.662;18.324;2023-08-21T14:44:28;13.07;;;9.57;;
73951;SDS011;62304;47.662;18.324;2023-08-21T14:47:31;11.02;;;8.90;;
73951;SDS011;62304;47.662;18.324;2023-08-21T14:50:34;10.68;;;8.90;;
73951;SDS011;62304;47.662;18.324;2023-08-21T14:53:37;10.10;;;8.37;;
73951;SDS011;62304;47.662;18.324;2023-08-21T14:56:40;11.20;;;8.50;;
73951;SDS011;62304;47.662;18.324;2023-08-21T14:59:43;10.70;;;8.20;;
73951;SDS011;62304;47.662;18.324;2023-08-21T15:02:46;10.48;;;7.62;;
73951;SDS011;62304;47.662;18.324;2023-08-21T15:05:50;9.65;;;8.20;;
73951;SDS011;62304;47.662;18.324;2023-08-21T15:08:53;10.00;;;8.57;;
73951;SDS011;62304;47.662;18.324;2023-08-21T15:11:56;10.35;;;8.40;;
73951;SDS011;62304;47.662;18.324;2023-08-21T15:14:59;11.48;;;8.70;;
73951;SDS011;62304;47.662;18.324;2023-08-21T15:18:02;10.90;;;8.68;;
73951;SDS011;62304;47.662;18.324;2023-08-21T15:21:05;12.37;;;8.32;;
73951;SDS011;62304;47.662;18.324;2023-08-21T15:24:09;9.37;;;8.37;;
73951;SDS011;62304;47.662;18.324;2023-08-21T15:27:12;9.90;;;8.25;;
73951;SDS011;62304;47.662;18.324;2023-08-21T15:30:16;13.25;;;7.82;;
73951;SDS011;62304;47.662;18.324;2023-08-21T15:33:20;9.00;;;7.85;;
73951;SDS011;62304;47.662;18.324;2023-08-21T15:36:24;10.18;;;7.50;;
73951;SDS011;62304;47.662;18.324;2023-08-21T15:39:27;8.90;;;7.10;;
73951;SDS011;62304;47.662;18.324;2023-08-21T15:42:30;9.05;;;7.22;;
73951;SDS011;62304;47.662;18.324;2023-08-21T15:45:34;9.35;;;8.02;;
73951;SDS011;62304;47.662;18.324;2023-08-21T15:48:37;12.15;;;7.53;;
73951;SDS011;62304;47.662;18.324;2023-08-21T15:51:44;9.13;;;7.55;;
73951;SDS011;62304;47.662;18.324;2023-08-21T15:54:47;10.70;;;7.00;;
73951;SDS011;62304;47.662;18.324;2023-08-21T15:57:53;8.52;;;6.62;;
73951;SDS011;62304;47.662;18.324;2023-08-21T16:00:57;8.93;;;7.15;;
73951;SDS011;62304;47.662;18.324;2023-08-21T16:04:00;9.88;;;6.95;;
73951;SDS011;62304;47.662;18.324;2023-08-21T16:07:03;10.77;;;7.07;;
73951;SDS011;62304;47.662;18.324;2023-08-21T16:10:07;8.40;;;7.27;;
73951;SDS011;62304;47.662;18.324;2023-08-21T16:13:11;8.95;;;6.82;;
73951;SDS011;62304;47.662;18.324;2023-08-21T16:16:14;10.35;;;7.15;;
73951;SDS011;62304;47.662;18.324;2023-08-21T16:19:17;8.70;;;7.28;;
73951;SDS011;62304;47.662;18.324;2023-08-21T16:22:21;9.60;;;6.85;;
73951;SDS011;62304;47.662;18.324;2023-08-21T16:25:24;10.17;;;7.17;;
73951;SDS011;62304;47.662;18.324;2023-08-21T16:28:27;9.45;;;7.43;;
73951;SDS011;62304;47.662;18.324;2023-08-21T16:31:30;9.75;;;7.65;;
73951;SDS011;62304;47.662;18.324;2023-08-21T16:34:33;11.07;;;7.12;;
73951;SDS011;62304;47.662;18.324;2023-08-21T16:37:36;9.00;;;7.40;;
73951;SDS011;62304;47.662;18.324;2023-08-21T16:40:40;10.53;;;7.57;;
73951;SDS011;62304;47.662;18.324;2023-08-21T16:43:43;11.98;;;7.60;;
73951;SDS011;62304;47.662;18.324;2023-08-21T16:46:46;9.43;;;7.40;;
73951;SDS011;62304;47.662;18.324;2023-08-21T16:49:50;11.27;;;7.43;;
73951;SDS011;62304;47.662;18.324;2023-08-21T16:52:53;11.52;;;7.37;;
73951;SDS011;62304;47.662;18.324;2023-08-21T16:55:58;11.23;;;7.17;;
73951;SDS011;62304;47.662;18.324;2023-08-21T16:59:01;9.48;;;7.10;;
73951;SDS011;62304;47.662;18.324;2023-08-21T17:02:04;9.18;;;7.35;;
73951;SDS011;62304;47.662;18.324;2023-08-21T17:05:08;9.25;;;7.40;;
73951;SDS011;62304;47.662;18.324;2023-08-21T17:08:11;11.18;;;7.55;;
73951;SDS011;62304;47.662;18.324;2023-08-21T17:11:14;8.60;;;7.33;;
73951;SDS011;62304;47.662;18.324;2023-08-21T17:14:17;11.15;;;7.32;;
73951;SDS011;62304;47.662;18.324;2023-08-21T17:17:21;12.70;;;7.57;;
73951;SDS011;62304;47.662;18.324;2023-08-21T17:20:24;14.20;;;8.25;;
73951;SDS011;62304;47.662;18.324;2023-08-21T17:23:28;14.77;;;8.50;;
73951;SDS011;62304;47.662;18.324;2023-08-21T17:26:31;12.63;;;7.87;;
73951;SDS011;62304;47.662;18.324;2023-08-21T17:29:35;11.27;;;7.97;;
73951;SDS011;62304;47.662;18.324;2023-08-21T17:32:38;15.40;;;7.45;;
73951;SDS011;62304;47.662;18.324;2023-08-21T17:35:42;15.40;;;8.43;;
73951;SDS011;62304;47.662;18.324;2023-08-21T17:38:46;12.05;;;8.20;;
73951;SDS011;62304;47.662;18.324;2023-08-21T17:41:50;13.80;;;8.20;;
73951;SDS011;62304;47.662;18.324;2023-08-21T17:44:54;16.80;;;8.27;;
73951;SDS011;62304;47.662;18.324;2023-08-21T17:47:58;13.07;;;8.98;;
73951;SDS011;62304;47.662;18.324;2023-08-21T17:51:02;14.43;;;8.80;;
73951;SDS011;62304;47.662;18.324;2023-08-21T17:54:07;15.68;;;8.63;;
73951;SDS011;62304;47.662;18.324;2023-08-21T17:57:11;13.90;;;8.47;;